createdAt,value
2023-04-25T00:00:11.537Z,97935.72
2023-04-25T00:02:20.662Z,97930.53
2023-04-25T00:04:26.857Z,97927.28
2023-04-25T00:06:32.939Z,97929.06
2023-04-25T00:08:38.348Z,97934.28
2023-04-25T00:10:43.444Z,97936.81
2023-04-25T00:12:48.963Z,97939.34
2023-04-25T00:14:57.974Z,97940.19
2023-04-25T00:17:03.722Z,97937.34
2023-04-25T00:19:10.706Z,97930.69
2023-04-25T00:21:16.087Z,97939.28
2023-04-25T00:23:21.622Z,97932.91
2023-04-25T00:25:27.247Z,97933.06
2023-04-25T00:27:32.325Z,97929.06
2023-04-25T00:29:37.852Z,97930.66
2023-04-25T00:31:46.687Z,97939.19
2023-04-25T00:33:52.349Z,97935.88
2023-04-25T00:35:58.338Z,97937.63
2023-04-25T00:38:03.569Z,97931.97
2023-04-25T00:40:11.588Z,97928.66
2023-04-25T00:42:17.509Z,97931.97
2023-04-25T00:44:24.241Z,97928.66
2023-04-25T00:46:29.656Z,97937.06
2023-04-25T00:48:38.050Z,97939.63
2023-04-25T00:50:43.757Z,97931.31
2023-04-25T00:52:49.995Z,97933.69
2023-04-25T00:54:55.176Z,97928.50
2023-04-25T00:57:02.092Z,97928.50
2023-04-25T00:59:07.683Z,97937.06
2023-04-25T01:01:13.856Z,97938.88
2023-04-25T01:03:21.532Z,97939.06
2023-04-25T01:05:29.395Z,97940.69
2023-04-25T01:07:38.065Z,97931.50
2023-04-25T01:09:44.681Z,97929.88
2023-04-25T01:11:49.864Z,97929.03
2023-04-25T01:13:55.403Z,97927.44
2023-04-25T01:16:00.604Z,97929.03
2023-04-25T01:18:06.605Z,97932.47
2023-04-25T01:20:15.255Z,97930.03
2023-04-25T01:22:23.863Z,97927.38
2023-04-25T01:24:30.534Z,97923.75
2023-04-25T01:26:37.723Z,97918.78
2023-04-25T01:28:44.857Z,97912.09
2023-04-25T01:30:51.315Z,97912.91
2023-04-25T01:32:58.902Z,97908.81
2023-04-25T01:35:04.093Z,97909.00
2023-04-25T01:37:09.519Z,97904.69
2023-04-25T01:39:17.349Z,97907.34
2023-04-25T01:41:24.659Z,97912.44
2023-04-25T01:43:30.357Z,97913.44
2023-04-25T01:45:37.523Z,97919.44
2023-04-25T01:47:44.879Z,97917.72
2023-04-25T01:49:50.089Z,97924.44
2023-04-25T01:51:55.281Z,97924.53
2023-04-25T01:54:01.484Z,97931.44
2023-04-25T01:56:11.234Z,97933.16
2023-04-25T01:58:17.677Z,97929.94
2023-04-25T02:00:36.693Z,97928.44
2023-04-25T02:02:43.217Z,97932.66
2023-04-25T02:04:59.445Z,97933.47
2023-04-25T02:07:07.431Z,97938.47
2023-04-25T02:09:22.475Z,97933.47
2023-04-25T02:11:34.516Z,97938.56
2023-04-25T02:13:58.007Z,97945.31
2023-04-25T02:16:27.425Z,97941.09
2023-04-25T02:18:33.231Z,97938.66
2023-04-25T02:20:38.779Z,97936.91
2023-04-25T02:22:44.028Z,97942.88
2023-04-25T02:24:49.991Z,97940.44
2023-04-25T02:26:58.139Z,97932.00
2023-04-25T02:29:03.250Z,97938.81
2023-04-25T02:31:09.454Z,97928.53
2023-04-25T02:33:14.648Z,97927.69
2023-04-25T02:35:19.829Z,97932.66
2023-04-25T02:37:25.024Z,97936.91
2023-04-25T02:39:30.104Z,97938.72
2023-04-25T02:41:35.208Z,97941.28
2023-04-25T02:43:43.965Z,97938.72
2023-04-25T02:45:49.279Z,97940.34
2023-04-25T02:47:55.275Z,97938.81
2023-04-25T02:50:00.425Z,97943.91
2023-04-25T02:52:05.776Z,97939.13
2023-04-25T02:54:11.115Z,97936.53
2023-04-25T02:56:20.428Z,97937.38
2023-04-25T02:58:26.000Z,97940.75
2023-04-25T03:00:35.213Z,97945.69
2023-04-25T03:02:40.833Z,97942.25
2023-04-25T03:04:46.070Z,97940.63
2023-04-25T03:06:51.574Z,97934.97
2023-04-25T03:08:59.721Z,97946.88
2023-04-25T03:11:05.188Z,97943.47
2023-04-25T03:13:10.317Z,97943.66
2023-04-25T03:15:18.214Z,97940.00
2023-04-25T03:17:25.903Z,97941.94
2023-04-25T03:19:31.581Z,97937.94
2023-04-25T03:21:39.935Z,97948.00
2023-04-25T03:23:45.022Z,97945.88
2023-04-25T03:25:50.977Z,97943.75
2023-04-25T03:27:56.611Z,97936.56
2023-04-25T03:30:01.806Z,97939.09
2023-04-25T03:32:08.894Z,97949.22
2023-04-25T03:34:17.371Z,97945.94
2023-04-25T03:36:23.181Z,97946.06
2023-04-25T03:38:28.351Z,97945.44
2023-04-25T03:40:34.455Z,97942.09
2023-04-25T03:43:01.895Z,97948.78
2023-04-25T03:45:08.530Z,97946.56
2023-04-25T03:47:13.695Z,97953.44
2023-04-25T03:49:21.385Z,97949.50
2023-04-25T03:51:35.899Z,97954.91
2023-04-25T03:53:41.889Z,97956.69
2023-04-25T03:55:58.781Z,97956.06
2023-04-25T03:58:09.339Z,97958.81
2023-04-25T04:00:18.739Z,97956.47
2023-04-25T04:02:23.977Z,97958.19
2023-04-25T04:04:34.908Z,97958.16
2023-04-25T04:06:41.170Z,97951.56
2023-04-25T04:08:52.660Z,97955.16
2023-04-25T04:10:58.497Z,97967.69
2023-04-25T04:13:05.110Z,97965.28
2023-04-25T04:15:13.809Z,97961.28
2023-04-25T04:17:20.214Z,97967.25
2023-04-25T04:19:25.426Z,97972.28
2023-04-25T04:21:47.204Z,97977.44
2023-04-25T04:26:01.192Z,97985.06
2023-04-25T04:28:07.145Z,97977.41
2023-04-25T04:30:30.657Z,97986.38
2023-04-25T04:32:38.835Z,97988.09
2023-04-25T04:34:45.729Z,97992.19
2023-04-25T04:36:56.671Z,97988.94
2023-04-25T04:39:02.835Z,97994.66
2023-04-25T04:41:15.021Z,97997.22
2023-04-25T04:43:29.700Z,97992.41
2023-04-25T04:45:46.851Z,97997.47
2023-04-25T04:48:15.672Z,97999.09
2023-04-25T04:50:38.094Z,98003.81
2023-04-25T04:53:04.418Z,98007.59
2023-04-25T04:55:22.187Z,98008.19
2023-04-25T04:57:41.739Z,98022.97
2023-04-25T05:00:19.485Z,98037.63
2023-04-25T05:02:42.299Z,98044.13
2023-04-25T05:05:11.471Z,98046.28
2023-04-25T05:07:32.560Z,98045.44
2023-04-25T05:10:12.478Z,98056.00
2023-04-25T05:12:37.198Z,98053.31
2023-04-25T05:15:17.112Z,98053.25
2023-04-25T05:17:41.498Z,98046.50
2023-04-25T05:20:25.333Z,98050.44
2023-04-25T05:22:53.583Z,98051.38
2023-04-25T05:25:36.723Z,98047.97
2023-04-25T05:28:02.467Z,98039.47
2023-04-25T05:30:19.540Z,98036.31
2023-04-25T05:32:51.955Z,98046.22
2023-04-25T05:34:57.659Z,98045.22
2023-04-25T05:37:06.473Z,98046.91
2023-04-25T05:39:15.859Z,98053.56
2023-04-25T05:41:44.360Z,98044.00
2023-04-25T05:44:12.743Z,98053.75
2023-04-25T05:46:25.794Z,98052.03
2023-04-25T05:48:47.452Z,98043.47
2023-04-25T05:51:19.602Z,98046.97
2023-04-25T05:53:56.900Z,98056.97
2023-04-25T05:56:02.036Z,98051.16
2023-04-25T05:58:10.624Z,98049.19
2023-04-25T06:00:20.021Z,98055.81
2023-04-25T06:02:27.922Z,98057.19
2023-04-25T06:04:34.111Z,98064.50
2023-04-25T06:06:40.253Z,98067.72
2023-04-25T06:08:46.435Z,98065.72
2023-04-25T06:10:51.742Z,98071.94
2023-04-25T06:12:58.061Z,98071.78
2023-04-25T06:15:20.170Z,98070.00
2023-04-25T06:17:34.023Z,98072.19
2023-04-25T06:19:41.024Z,98078.75
2023-04-25T06:21:48.661Z,98067.72
2023-04-25T06:23:54.079Z,98070.84
2023-04-25T06:26:05.839Z,98066.31
2023-04-25T06:28:12.625Z,98068.31
2023-04-25T06:30:24.644Z,98070.75
2023-04-25T06:32:31.909Z,98079.91
2023-04-25T06:34:39.042Z,98081.78
2023-04-25T06:36:47.283Z,98079.97
2023-04-25T06:38:54.657Z,98070.75
2023-04-25T06:41:00.130Z,98080.72
2023-04-25T06:43:09.952Z,98070.00
2023-04-25T06:45:36.882Z,98067.56
2023-04-25T06:47:42.713Z,98073.00
2023-04-25T06:49:47.907Z,98062.91
2023-04-25T06:51:53.651Z,98065.13
2023-04-25T06:53:58.967Z,98071.84
2023-04-25T06:56:14.975Z,98072.63
2023-04-25T06:58:28.938Z,98071.81
2023-04-25T07:01:02.243Z,98068.16
2023-04-25T07:03:07.960Z,98077.69
2023-04-25T07:05:13.592Z,98075.25
2023-04-25T07:07:18.711Z,98073.59
2023-04-25T07:09:31.338Z,98078.09
2023-04-25T07:11:37.994Z,98075.44
2023-04-25T07:13:43.404Z,98074.72
2023-04-25T07:15:49.330Z,98076.09
2023-04-25T07:17:59.052Z,98077.25
2023-04-25T07:20:05.154Z,98079.16
2023-04-25T07:22:10.445Z,98087.22
2023-04-25T07:24:18.516Z,98082.56
2023-04-25T07:26:26.344Z,98084.22
2023-04-25T07:28:53.869Z,98087.69
2023-04-25T07:30:59.319Z,98095.97
2023-04-25T07:33:07.304Z,98092.34
2023-04-25T07:35:13.210Z,98103.94
2023-04-25T07:37:19.936Z,98100.44
2023-04-25T07:39:41.671Z,98094.03
2023-04-25T07:41:46.819Z,98095.91
2023-04-25T07:43:57.649Z,98100.72
2023-04-25T07:46:04.082Z,98103.38
2023-04-25T07:48:14.414Z,98103.91
2023-04-25T07:50:19.935Z,98101.84
2023-04-25T07:52:25.684Z,98109.63
2023-04-25T07:54:39.298Z,98108.38
2023-04-25T07:56:53.691Z,98110.88
2023-04-25T07:59:04.829Z,98106.28
2023-04-25T08:01:09.939Z,98106.69
2023-04-25T08:03:28.606Z,98113.44
2023-04-25T08:05:35.052Z,98109.44
2023-04-25T08:07:44.688Z,98108.91
2023-04-25T08:09:50.456Z,98112.63
2023-04-25T08:12:03.063Z,98109.56
2023-04-25T08:14:10.959Z,98115.81
2023-04-25T08:16:17.740Z,98119.00
2023-04-25T08:18:22.935Z,98121.41
2023-04-25T08:20:31.797Z,98117.09
2023-04-25T08:22:39.400Z,98131.78
2023-04-25T08:25:05.262Z,98126.06
2023-04-25T08:27:12.274Z,98127.28
2023-04-25T08:29:17.475Z,98136.88
2023-04-25T08:31:23.605Z,98134.28
2023-04-25T08:33:35.807Z,98135.25
2023-04-25T08:35:54.111Z,98131.91
2023-04-25T08:37:59.381Z,98143.44
2023-04-25T08:40:08.236Z,98139.44
2023-04-25T08:42:36.825Z,98131.38
2023-04-25T08:44:42.882Z,98138.28
2023-04-25T08:46:52.109Z,98146.31
2023-04-25T08:49:06.595Z,98149.81
2023-04-25T08:51:19.959Z,98154.34
2023-04-25T08:53:31.664Z,98158.91
2023-04-25T08:55:41.388Z,98151.81
2023-04-25T08:57:48.516Z,98151.75
2023-04-25T08:59:56.740Z,98164.53
2023-04-25T09:02:02.980Z,98161.28
2023-04-25T09:04:10.529Z,98165.63
2023-04-25T09:06:18.944Z,98161.69
2023-04-25T09:08:24.196Z,98163.09
2023-04-25T09:10:29.365Z,98175.88
2023-04-25T09:12:36.684Z,98180.88
2023-04-25T09:14:43.871Z,98182.63
2023-04-25T09:17:09.484Z,98184.63
2023-04-25T09:19:38.984Z,98196.47
2023-04-25T09:21:58.903Z,98200.13
2023-04-25T09:24:04.460Z,98201.41
2023-04-25T09:26:11.948Z,98205.16
2023-04-25T09:28:17.412Z,98211.75
2023-04-25T09:30:32.186Z,98204.44
2023-04-25T09:33:01.719Z,98211.66
2023-04-25T09:35:10.611Z,98217.53
2023-04-25T09:37:23.123Z,98212.44
2023-04-25T09:39:50.116Z,98204.69
2023-04-25T09:41:58.610Z,98206.94
2023-04-25T09:44:04.853Z,98210.59
2023-04-25T09:46:16.695Z,98209.44
2023-04-25T09:48:28.747Z,98206.97
2023-04-25T09:50:36.520Z,98206.78
2023-04-25T09:52:49.837Z,98207.75
2023-04-25T09:54:59.501Z,98202.09
2023-04-25T09:57:16.434Z,98211.50
2023-04-25T09:59:24.543Z,98216.09
2023-04-25T10:01:31.401Z,98207.81
2023-04-25T10:03:50.856Z,98207.63
2023-04-25T10:06:16.701Z,98212.88
2023-04-25T10:08:26.141Z,98215.88
2023-04-25T10:10:34.030Z,98220.28
2023-04-25T10:12:41.151Z,98228.72
2023-04-25T10:14:47.006Z,98223.34
2023-04-25T10:16:54.745Z,98229.72
2023-04-25T10:19:00.388Z,98237.06
2023-04-25T10:21:08.059Z,98231.53
2023-04-25T10:23:18.167Z,98242.59
2023-04-25T10:25:27.036Z,98239.81
2023-04-25T10:27:32.731Z,98244.31
2023-04-25T10:29:39.341Z,98247.28
2023-04-25T10:31:50.411Z,98253.53
2023-04-25T10:33:55.507Z,98255.31
2023-04-25T10:36:02.513Z,98261.06
2023-04-25T10:38:09.676Z,98259.69
2023-04-25T10:40:16.924Z,98271.31
2023-04-25T10:42:25.020Z,98267.63
2023-04-25T10:44:32.611Z,98266.47
2023-04-25T10:46:38.885Z,98270.53
2023-04-25T10:48:51.891Z,98265.53
2023-04-25T10:51:12.072Z,98264.09
2023-04-25T10:53:19.091Z,98266.59
2023-04-25T10:55:24.653Z,98256.94
2023-04-25T10:57:44.617Z,98258.75
2023-04-25T10:59:52.510Z,98267.06
2023-04-25T11:01:58.173Z,98265.59
2023-04-25T11:04:03.716Z,98260.16
2023-04-25T11:06:14.070Z,98260.16
2023-04-25T11:08:34.670Z,98262.63
2023-04-25T11:10:39.744Z,98261.06
2023-04-25T11:12:48.518Z,98267.88
2023-04-25T11:14:53.731Z,98264.41
2023-04-25T11:17:00.866Z,98262.59
2023-04-25T11:19:06.896Z,98262.31
2023-04-25T11:21:12.159Z,98263.28
2023-04-25T11:23:17.283Z,98262.47
2023-04-25T11:25:22.382Z,98272.13
2023-04-25T11:27:29.083Z,98260.06
2023-04-25T11:29:38.743Z,98258.38
2023-04-25T11:31:47.796Z,98272.03
2023-04-25T11:33:53.488Z,98268.13
2023-04-25T11:35:59.640Z,98263.03
2023-04-25T11:38:05.759Z,98266.00
2023-04-25T11:40:13.781Z,98268.59
2023-04-25T11:42:19.318Z,98275.28
2023-04-25T11:44:25.451Z,98279.16
2023-04-25T11:46:33.489Z,98281.66
2023-04-25T11:48:42.314Z,98270.19
2023-04-25T11:50:47.657Z,98280.03
2023-04-25T11:52:53.188Z,98276.69
2023-04-25T11:54:59.979Z,98286.13
2023-04-25T11:57:05.162Z,98281.41
2023-04-25T11:59:10.989Z,98287.63
2023-04-25T12:01:16.430Z,98291.91
2023-04-25T12:03:27.530Z,98291.97
2023-04-25T12:05:35.503Z,98281.03
2023-04-25T12:07:42.298Z,98282.66
2023-04-25T12:09:47.372Z,98292.72
2023-04-25T12:11:57.757Z,98302.25
2023-04-25T12:14:07.886Z,98291.78
2023-04-25T12:16:13.028Z,98306.53
2023-04-25T12:18:18.332Z,98313.09
2023-04-25T12:20:29.168Z,98308.44
2023-04-25T12:22:34.652Z,98312.81
2023-04-25T12:24:39.802Z,98306.94
2023-04-25T12:26:53.580Z,98302.13
2023-04-25T12:28:58.647Z,98296.44
2023-04-25T12:31:05.913Z,98288.88
2023-04-25T12:33:11.505Z,98291.44
2023-04-25T12:35:17.345Z,98298.03
2023-04-25T12:37:25.051Z,98298.66
2023-04-25T12:39:30.366Z,98313.41
2023-04-25T12:41:35.533Z,98308.03
2023-04-25T12:43:40.660Z,98313.72
2023-04-25T12:45:46.165Z,98309.31
2023-04-25T12:47:51.470Z,98311.88
2023-04-25T12:49:57.168Z,98310.06
2023-04-25T12:52:02.835Z,98314.06
2023-04-25T12:54:11.169Z,98316.75
2023-04-25T12:56:16.637Z,98315.16
2023-04-25T12:58:23.100Z,98334.97
2023-04-25T13:00:28.584Z,98325.22
2023-04-25T13:02:33.755Z,98332.81
2023-04-25T13:04:39.372Z,98331.16
2023-04-25T13:06:44.815Z,98332.59
2023-04-25T13:08:50.126Z,98332.16
2023-04-25T13:10:58.122Z,98327.44
2023-04-25T13:13:03.702Z,98337.94
2023-04-25T13:15:12.427Z,98331.59
2023-04-25T13:17:17.483Z,98338.63
2023-04-25T13:19:22.580Z,98338.50
2023-04-25T13:21:28.127Z,98333.81
2023-04-25T13:23:33.769Z,98340.59
2023-04-25T13:25:39.121Z,98333.13
2023-04-25T13:27:47.534Z,98340.00
2023-04-25T13:29:52.619Z,98345.00
2023-04-25T13:31:57.702Z,98342.78
2023-04-25T13:34:02.780Z,98340.22
2023-04-25T13:36:08.423Z,98329.28
2023-04-25T13:38:13.448Z,98335.56
2023-04-25T13:40:18.882Z,98337.34
2023-04-25T13:42:23.903Z,98346.53
2023-04-25T13:44:32.117Z,98337.72
2023-04-25T13:48:49.781Z,98337.44
2023-04-25T13:50:55.070Z,98341.38
2023-04-25T13:53:00.119Z,98335.53
2023-04-25T13:55:07.966Z,98349.75
2023-04-25T13:57:14.072Z,98339.94
2023-04-25T13:59:19.128Z,98349.63
2023-04-25T14:01:28.085Z,98345.84
2023-04-25T14:03:33.807Z,98355.97
2023-04-25T14:05:41.427Z,98352.81
2023-04-25T14:07:47.019Z,98351.97
2023-04-25T14:09:52.078Z,98357.31
2023-04-25T14:11:58.068Z,98364.13
2023-04-25T14:14:03.128Z,98350.59
2023-04-25T14:16:09.054Z,98362.13
2023-04-25T14:18:16.707Z,98366.94
2023-04-25T14:20:24.989Z,98366.19
2023-04-25T14:22:30.033Z,98364.25
2023-04-25T14:24:35.069Z,98363.81
2023-04-25T14:26:40.470Z,98373.03
2023-04-25T14:28:45.678Z,98376.03
2023-04-25T14:30:51.062Z,98383.53
2023-04-25T14:32:56.401Z,98381.25
2023-04-25T14:35:04.071Z,98376.66
2023-04-25T14:37:09.265Z,98378.00
2023-04-25T14:39:15.242Z,98380.75
2023-04-25T14:41:20.552Z,98386.88
2023-04-25T14:43:25.685Z,98378.94
2023-04-25T14:45:30.777Z,98378.63
2023-04-25T14:47:35.918Z,98379.38
2023-04-25T14:49:40.969Z,98380.25
2023-04-25T14:51:50.211Z,98391.56
2023-04-25T14:53:57.385Z,98392.19
2023-04-25T14:56:02.681Z,98392.66
2023-04-25T14:58:08.273Z,98400.22
2023-04-25T15:00:17.364Z,98403.97
2023-04-25T15:02:22.619Z,98402.91
2023-04-25T15:04:27.968Z,98409.09
2023-04-25T15:06:33.485Z,98410.13
2023-04-25T15:08:41.149Z,98420.28
2023-04-25T15:10:46.454Z,98410.38
2023-04-25T15:12:51.793Z,98405.38
2023-04-25T15:14:57.320Z,98398.63
2023-04-25T15:17:02.556Z,98410.03
2023-04-25T15:19:08.417Z,98409.50
2023-04-25T15:21:13.614Z,98409.97
2023-04-25T15:23:19.021Z,98405.03
2023-04-25T15:25:27.322Z,98405.81
2023-04-25T15:27:32.369Z,98400.84
2023-04-25T15:29:37.417Z,98406.03
2023-04-25T15:31:42.509Z,98406.13
2023-04-25T15:33:48.551Z,98413.25
2023-04-25T15:35:53.689Z,98416.88
2023-04-25T15:37:58.747Z,98418.50
2023-04-25T15:40:10.061Z,98413.97
2023-04-25T15:42:17.722Z,98412.75
2023-04-25T15:44:23.026Z,98423.53
2023-04-25T15:46:28.210Z,98420.03
2023-04-25T15:48:33.298Z,98416.44
2023-04-25T15:50:39.163Z,98419.09
2023-04-25T15:52:44.775Z,98418.72
2023-04-25T15:54:49.803Z,98415.94
2023-04-25T15:56:54.838Z,98420.59
2023-04-25T15:59:02.581Z,98414.13
2023-04-25T16:01:07.957Z,98415.56
2023-04-25T16:03:13.281Z,98416.66
2023-04-25T16:05:19.510Z,98422.72
2023-04-25T16:07:24.665Z,98416.44
2023-04-25T16:09:29.773Z,98424.28
2023-04-25T16:11:34.812Z,98423.34
2023-04-25T16:13:39.854Z,98416.75
2023-04-25T16:15:47.751Z,98419.41
2023-04-25T16:17:52.903Z,98415.75
2023-04-25T16:19:59.542Z,98403.25
2023-04-25T16:22:04.909Z,98398.91
2023-04-25T16:24:11.451Z,98406.38
2023-04-25T16:26:16.666Z,98411.22
2023-04-25T16:28:21.796Z,98414.34
2023-04-25T16:30:27.185Z,98422.88
2023-04-25T16:32:34.953Z,98426.50
2023-04-25T16:34:40.164Z,98425.09
2023-04-25T16:36:45.204Z,98436.69
2023-04-25T16:38:50.396Z,98436.94
2023-04-25T16:40:56.139Z,98447.09
2023-04-25T16:43:02.100Z,98454.13
2023-04-25T16:45:09.090Z,98444.34
2023-04-25T16:47:17.977Z,98440.47
2023-04-25T16:49:27.181Z,98442.59
2023-04-25T16:51:32.683Z,98441.41
2023-04-25T16:53:38.079Z,98429.91
2023-04-25T16:55:44.036Z,98424.09
2023-04-25T16:57:49.076Z,98426.50
2023-04-25T16:59:54.748Z,98433.31
2023-04-25T17:01:59.906Z,98433.91
2023-04-25T17:04:05.140Z,98427.16
2023-04-25T17:06:13.481Z,98433.13
2023-04-25T17:08:18.882Z,98433.53
2023-04-25T17:10:23.965Z,98428.69
2023-04-25T17:12:29.011Z,98425.84
2023-04-25T17:14:36.156Z,98436.94
2023-04-25T17:16:42.272Z,98439.56
2023-04-25T17:18:47.481Z,98443.06
2023-04-25T17:20:52.533Z,98443.63
2023-04-25T17:23:00.167Z,98454.88
2023-04-25T17:25:05.478Z,98449.72
2023-04-25T17:27:10.595Z,98448.84
2023-04-25T17:29:15.604Z,98459.72
2023-04-25T17:31:20.844Z,98468.78
2023-04-25T17:33:27.289Z,98463.47
2023-04-25T17:35:34.251Z,98465.84
2023-04-25T17:37:40.931Z,98478.91
2023-04-25T17:39:48.726Z,98468.31
2023-04-25T17:41:53.808Z,98474.56
2023-04-25T17:43:58.819Z,98476.31
2023-04-25T17:46:03.878Z,98462.09
2023-04-25T17:48:09.075Z,98473.25
2023-04-25T17:50:16.809Z,98480.56
2023-04-25T17:52:22.140Z,98481.09
2023-04-25T17:54:27.760Z,98487.69
2023-04-25T17:56:39.155Z,98487.63
2023-04-25T17:58:44.375Z,98488.13
2023-04-25T18:00:49.432Z,98490.59
2023-04-25T18:02:55.121Z,98491.81
2023-04-25T18:05:00.373Z,98500.75
2023-04-25T18:07:07.810Z,98496.78
2023-04-25T18:09:18.646Z,98513.38
2023-04-25T18:11:24.375Z,98515.44
2023-04-25T18:13:32.223Z,98508.19
2023-04-25T18:15:38.236Z,98514.47
2023-04-25T18:17:43.407Z,98516.50
2023-04-25T18:19:48.993Z,98525.03
2023-04-25T18:21:57.136Z,98515.44
2023-04-25T18:24:02.224Z,98525.72
2023-04-25T18:26:08.926Z,98529.31
2023-04-25T18:28:14.017Z,98534.69
2023-04-25T18:30:21.691Z,98541.63
2023-04-25T18:32:28.790Z,98545.22
2023-04-25T18:34:34.151Z,98547.03
2023-04-25T18:36:40.191Z,98553.94
2023-04-25T18:38:50.329Z,98556.50
2023-04-25T18:41:00.062Z,98557.50
2023-04-25T18:43:08.326Z,98559.28
2023-04-25T18:45:14.708Z,98561.78
2023-04-25T18:47:22.313Z,98560.94
2023-04-25T18:49:27.491Z,98568.44
2023-04-25T18:51:33.847Z,98570.94
2023-04-25T18:53:39.215Z,98576.75
2023-04-25T18:55:44.254Z,98579.22
2023-04-25T18:57:49.286Z,98575.88
2023-04-25T18:59:55.043Z,98586.63
2023-04-25T19:02:02.783Z,98587.50
2023-04-25T19:04:10.719Z,98591.63
2023-04-25T19:06:15.840Z,98592.50
2023-04-25T19:08:20.936Z,98594.25
2023-04-25T19:10:26.646Z,98592.56
2023-04-25T19:12:33.408Z,98594.19
2023-04-25T19:14:38.460Z,98600.78
2023-04-25T19:16:43.581Z,98603.94
2023-04-25T19:18:52.153Z,98605.56
2023-04-25T19:21:00.532Z,98603.06
2023-04-25T19:23:05.625Z,98611.44
2023-04-25T19:25:11.849Z,98613.94
2023-04-25T19:27:17.216Z,98610.66
2023-04-25T19:29:22.239Z,98614.78
2023-04-25T19:31:27.672Z,98611.50
2023-04-25T19:33:33.182Z,98609.13
2023-04-25T19:35:38.268Z,98615.00
2023-04-25T19:37:47.073Z,98608.38
2023-04-25T19:39:52.106Z,98615.09
2023-04-25T19:41:58.392Z,98613.53
2023-04-25T19:44:07.280Z,98612.81
2023-04-25T19:46:12.725Z,98617.81
2023-04-25T19:48:18.965Z,98619.53
2023-04-25T19:50:24.436Z,98624.56
2023-04-25T19:52:31.974Z,98628.69
2023-04-25T19:54:39.638Z,98627.91
2023-04-25T19:56:45.995Z,98628.66
2023-04-25T19:58:52.726Z,98626.19
2023-04-25T20:00:58.793Z,98624.53
2023-04-25T20:03:04.743Z,98628.69
2023-04-25T20:05:12.378Z,98636.28
2023-04-25T20:07:20.179Z,98633.03
2023-04-25T20:09:26.356Z,98646.38
2023-04-25T20:11:35.428Z,98648.06
2023-04-25T20:13:41.106Z,98643.13
2023-04-25T20:15:46.197Z,98647.97
2023-04-25T20:17:51.469Z,98646.22
2023-04-25T20:19:56.658Z,98652.91
2023-04-25T20:22:01.975Z,98657.00
2023-04-25T20:24:08.952Z,98664.53
2023-04-25T20:26:14.240Z,98662.84
2023-04-25T20:28:23.183Z,98664.50
2023-04-25T20:30:28.345Z,98666.03
2023-04-25T20:32:34.754Z,98670.16
2023-04-25T20:34:40.097Z,98669.09
2023-04-25T20:36:45.253Z,98669.06
2023-04-25T20:38:50.738Z,98663.22
2023-04-25T20:40:56.612Z,98658.22
2023-04-25T20:43:02.464Z,98668.28
2023-04-25T20:45:13.631Z,98672.47
2023-04-25T20:47:19.166Z,98677.47
2023-04-25T20:49:24.204Z,98676.69
2023-04-25T20:51:30.407Z,98674.19
2023-04-25T20:53:35.982Z,98678.44
2023-04-25T20:55:41.786Z,98684.16
2023-04-25T20:57:46.847Z,98682.53
2023-04-25T20:59:52.857Z,98678.38
2023-04-25T21:02:00.573Z,98682.50
2023-04-25T21:04:06.677Z,98685.84
2023-04-25T21:06:12.058Z,98675.94
2023-04-25T21:08:17.648Z,98678.50
2023-04-25T21:10:23.030Z,98689.41
2023-04-25T21:12:28.171Z,98687.81
2023-04-25T21:14:34.120Z,98684.56
2023-04-25T21:16:39.253Z,98683.81
2023-04-25T21:18:47.231Z,98687.25
2023-04-25T21:20:52.429Z,98687.34
2023-04-25T21:22:57.461Z,98682.41
2023-04-25T21:25:06.177Z,98683.34
2023-04-25T21:27:11.182Z,98690.13
2023-04-25T21:29:16.465Z,98686.84
2023-04-25T21:31:21.718Z,98690.22
2023-04-25T21:33:26.750Z,98693.56
2023-04-25T21:35:34.403Z,98691.94
2023-04-25T21:37:39.420Z,98701.13
2023-04-25T21:39:44.736Z,98697.00
2023-04-25T21:41:49.831Z,98692.84
2023-04-25T21:43:54.883Z,98706.97
2023-04-25T21:46:21.733Z,98705.31
2023-04-25T21:48:25.236Z,98708.66
2023-04-25T21:50:33.790Z,98710.31
2023-04-25T21:52:40.678Z,98706.97
2023-04-25T21:54:47.017Z,98707.00
2023-04-25T21:56:52.093Z,98708.66
2023-04-25T21:58:57.416Z,98713.63
2023-04-25T22:01:03.205Z,98713.63
2023-04-25T22:03:09.132Z,98721.94
2023-04-25T22:05:14.790Z,98722.75
2023-04-25T22:07:22.375Z,98715.28
2023-04-25T22:09:27.654Z,98719.44
2023-04-25T22:11:32.665Z,98720.22
2023-04-25T22:13:38.754Z,98721.06
2023-04-25T22:15:44.176Z,98718.59
2023-04-25T22:17:49.580Z,98718.59
2023-04-25T22:19:54.777Z,98717.78
2023-04-25T22:21:59.977Z,98720.25
2023-04-25T22:24:08.439Z,98726.91
2023-04-25T22:26:13.493Z,98727.72
2023-04-25T22:28:18.645Z,98723.59
2023-04-25T22:30:24.479Z,98733.53
2023-04-25T22:32:29.550Z,98733.50
2023-04-25T22:34:34.585Z,98730.22
2023-04-25T22:36:39.796Z,98731.88
2023-04-25T22:38:44.832Z,98736.03
2023-04-25T22:40:52.503Z,98738.53
2023-04-25T22:42:57.978Z,98736.88
2023-04-25T22:45:03.386Z,98742.66
2023-04-25T22:47:09.101Z,98741.03
2023-04-25T22:49:14.699Z,98741.88
2023-04-25T22:51:19.731Z,98746.81
2023-04-25T22:53:24.815Z,98743.50
2023-04-25T22:55:29.868Z,98749.31
2023-04-25T22:57:40.344Z,98755.13
2023-04-25T22:59:45.733Z,98746.81
2023-04-25T23:01:51.673Z,98756.78
2023-04-25T23:03:57.901Z,98755.13
2023-04-25T23:06:03.233Z,98752.63
2023-04-25T23:08:08.352Z,98756.78
2023-04-25T23:10:14.377Z,98756.75
2023-04-25T23:12:21.313Z,98757.59
2023-04-25T23:14:29.234Z,98760.88
2023-04-25T23:16:34.300Z,98756.75
2023-04-25T23:18:40.397Z,98760.06
2023-04-25T23:20:46.110Z,98765.03
2023-04-25T23:22:52.100Z,98766.69
2023-04-25T23:24:57.117Z,98760.84
2023-04-25T23:27:03.649Z,98765.75
2023-04-25T23:29:09.094Z,98765.72
2023-04-25T23:31:16.735Z,98774.88
2023-04-25T23:33:22.316Z,98776.50
2023-04-25T23:35:27.806Z,98771.47
2023-04-25T23:37:33.313Z,98773.94
2023-04-25T23:41:46.107Z,98786.22
2023-04-25T23:43:51.558Z,98783.72
2023-04-25T23:45:57.048Z,98793.56
2023-04-25T23:48:05.546Z,98794.50
2023-04-25T23:50:13.490Z,98794.53
2023-04-25T23:52:18.975Z,98787.19
2023-04-25T23:54:24.070Z,98789.69
2023-04-25T23:56:30.296Z,98783.91
2023-04-25T23:58:35.480Z,98785.47
